EZY64JW EGCC-EKCH
Flight info
| Callsign | EZY64JW |
|---|---|
| Flight time | N/A |
| Altitude | 37000 |
| Route | DESIG L603 LAMIX UT29 LIBSO UL975 ERDOW DCT ROPAL DCT LESRA DCT TESPI |
| Aircraft | A320/M-SDE2E3FGHIJ1RWXYZ/LB1 |
Departure
| Time | N/A |
|---|---|
| Airport | Manchester Airport (EGCC) |
Arrival
| Time | 2026-04-30 18:48 |
|---|---|
| Airport | Copenhagen Kastrup Airport (EKCH) |
| Time | Latitude | Longitude | Altitude | Speed | Heading |
|---|---|---|---|---|---|
| 2026-04-30 17:39 | 54.19822 | 1.51268 | 37323 ft | 428 kts | 57° |
| 2026-04-30 17:42 | 54.36698 | 1.93211 | 37341 ft | 429 kts | 58° |
| 2026-04-30 17:43 | 54.45091 | 2.14361 | 37343 ft | 429 kts | 58° |
| 2026-04-30 17:44 | 54.55104 | 2.39809 | 37352 ft | 429 kts | 58° |
| 2026-04-30 17:47 | 54.70081 | 2.78373 | 37371 ft | 430 kts | 58° |
| 2026-04-30 17:48 | 54.81678 | 3.08655 | 37390 ft | 432 kts | 58° |
| 2026-04-30 17:50 | 54.94867 | 3.43535 | 37407 ft | 432 kts | 58° |
| 2026-04-30 17:52 | 55.04696 | 3.69848 | 37408 ft | 432 kts | 58° |
| 2026-04-30 17:54 | 55.17700 | 4.10972 | 37416 ft | 431 kts | 73° |
| 2026-04-30 17:56 | 55.22386 | 4.52143 | 37425 ft | 432 kts | 79° |
| 2026-04-30 17:58 | 55.25726 | 4.83193 | 37426 ft | 432 kts | 79° |
| 2026-04-30 18:00 | 55.30075 | 5.24729 | 37436 ft | 433 kts | 79° |
| 2026-04-30 18:01 | 55.32720 | 5.50767 | 37442 ft | 433 kts | 79° |
| 2026-04-30 18:02 | 55.35823 | 5.81964 | 37455 ft | 433 kts | 79° |
| 2026-04-30 18:04 | 55.38837 | 6.13220 | 37457 ft | 432 kts | 79° |
| 2026-04-30 18:06 | 55.42722 | 6.54844 | 37453 ft | 431 kts | 80° |
| 2026-04-30 18:08 | 55.46019 | 6.91354 | 37454 ft | 431 kts | 80° |
| 2026-04-30 18:10 | 55.49633 | 7.33149 | 37460 ft | 431 kts | 80° |
| 2026-04-30 18:11 | 55.52691 | 7.69815 | 36021 ft | 429 kts | 80° |
| 2026-04-30 18:12 | 55.53943 | 7.85246 | 34609 ft | 417 kts | 80° |
| 2026-04-30 18:13 | 55.54750 | 7.95308 | 33603 ft | 410 kts | 80° |
| 2026-04-30 18:13 | 55.55785 | 8.08452 | 32270 ft | 402 kts | 80° |
| 2026-04-30 18:14 | 55.56674 | 8.19798 | 31184 ft | 396 kts | 80° |
| 2026-04-30 18:15 | 55.57772 | 8.34055 | 29741 ft | 388 kts | 80° |
| 2026-04-30 18:15 | 55.58840 | 8.48179 | 29463 ft | 389 kts | 80° |
| 2026-04-30 18:16 | 55.60254 | 8.67197 | 29464 ft | 390 kts | 80° |
| 2026-04-30 18:17 | 55.60953 | 8.76716 | 29470 ft | 390 kts | 80° |
| 2026-04-30 18:18 | 55.61980 | 8.90989 | 29466 ft | 390 kts | 80° |
| 2026-04-30 18:18 | 55.62653 | 9.00503 | 29462 ft | 389 kts | 81° |
| 2026-04-30 18:19 | 55.63321 | 9.10013 | 29462 ft | 389 kts | 80° |
| 2026-04-30 18:19 | 55.63989 | 9.19512 | 29460 ft | 389 kts | 80° |
| 2026-04-30 18:20 | 55.64645 | 9.29020 | 29454 ft | 389 kts | 80° |
| 2026-04-30 18:20 | 55.65296 | 9.38531 | 29448 ft | 389 kts | 80° |
| 2026-04-30 18:21 | 55.65934 | 9.48049 | 29450 ft | 389 kts | 81° |
| 2026-04-30 18:21 | 55.66558 | 9.57500 | 29448 ft | 389 kts | 80° |
| 2026-04-30 18:22 | 55.67188 | 9.67073 | 29445 ft | 389 kts | 80° |
| 2026-04-30 18:22 | 55.67802 | 9.76523 | 29251 ft | 387 kts | 81° |
| 2026-04-30 18:22 | 55.68102 | 9.81235 | 28974 ft | 384 kts | 81° |
| 2026-04-30 18:23 | 55.68400 | 9.85926 | 28696 ft | 381 kts | 80° |
| 2026-04-30 18:23 | 55.68694 | 9.90577 | 28427 ft | 379 kts | 80° |
| 2026-04-30 18:23 | 55.68986 | 9.95210 | 28158 ft | 377 kts | 80° |
| 2026-04-30 18:23 | 55.69275 | 9.99820 | 27886 ft | 375 kts | 80° |
| 2026-04-30 18:24 | 55.69845 | 10.08985 | 27369 ft | 372 kts | 81° |
| 2026-04-30 18:24 | 55.70124 | 10.13530 | 27111 ft | 370 kts | 81° |
| 2026-04-30 18:24 | 55.70401 | 10.18056 | 26857 ft | 368 kts | 81° |
| 2026-04-30 18:25 | 55.70675 | 10.22548 | 26604 ft | 366 kts | 81° |
| 2026-04-30 18:25 | 55.71213 | 10.31493 | 26107 ft | 363 kts | 81° |
| 2026-04-30 18:25 | 55.71477 | 10.35925 | 25861 ft | 361 kts | 81° |
| 2026-04-30 18:26 | 55.71995 | 10.44741 | 25372 ft | 358 kts | 81° |
| 2026-04-30 18:26 | 55.72252 | 10.49115 | 25130 ft | 356 kts | 81° |
| 2026-04-30 18:26 | 55.72421 | 10.52002 | 24975 ft | 355 kts | 81° |
| 2026-04-30 18:27 | 55.72924 | 10.60668 | 24507 ft | 352 kts | 81° |
| 2026-04-30 18:27 | 55.73170 | 10.64974 | 24280 ft | 350 kts | 81° |
| 2026-04-30 18:28 | 55.73653 | 10.73521 | 23772 ft | 347 kts | 81° |
| 2026-04-30 18:28 | 55.73892 | 10.77769 | 23499 ft | 345 kts | 81° |
| 2026-04-30 18:28 | 55.74359 | 10.86145 | 22764 ft | 337 kts | 81° |
| 2026-04-30 18:29 | 55.74587 | 10.90272 | 22334 ft | 335 kts | 81° |
| 2026-04-30 18:29 | 55.75248 | 11.02504 | 21080 ft | 329 kts | 81° |
| 2026-04-30 18:30 | 55.75681 | 11.10554 | 20262 ft | 326 kts | 81° |
| 2026-04-30 18:30 | 55.76108 | 11.18532 | 19448 ft | 324 kts | 81° |
| 2026-04-30 18:31 | 55.76319 | 11.22511 | 19051 ft | 323 kts | 81° |
| 2026-04-30 18:31 | 55.76723 | 11.30415 | 18209 ft | 320 kts | 82° |
| 2026-04-30 18:32 | 55.77117 | 11.38227 | 17433 ft | 315 kts | 82° |
| 2026-04-30 18:32 | 55.77311 | 11.42088 | 17038 ft | 313 kts | 83° |
| 2026-04-30 18:32 | 55.76946 | 11.49792 | 16304 ft | 313 kts | 95° |
| 2026-04-30 18:33 | 55.76646 | 11.53589 | 15917 ft | 311 kts | 95° |
| 2026-04-30 18:33 | 55.76054 | 11.61090 | 15085 ft | 300 kts | 95° |
| 2026-04-30 18:33 | 55.75766 | 11.64701 | 14623 ft | 294 kts | 95° |
| 2026-04-30 18:34 | 55.75479 | 11.68296 | 14281 ft | 294 kts | 95° |
| 2026-04-30 18:34 | 55.74910 | 11.75379 | 13110 ft | 287 kts | 95° |
| 2026-04-30 18:34 | 55.74627 | 11.78897 | 12544 ft | 289 kts | 95° |
| 2026-04-30 18:35 | 55.74343 | 11.82414 | 12181 ft | 287 kts | 95° |
| 2026-04-30 18:35 | 55.74065 | 11.85864 | 11815 ft | 286 kts | 95° |
| 2026-04-30 18:35 | 55.73780 | 11.89351 | 11443 ft | 285 kts | 95° |
| 2026-04-30 18:36 | 55.73203 | 11.96334 | 10690 ft | 283 kts | 96° |
| 2026-04-30 18:36 | 55.72923 | 11.99746 | 10324 ft | 283 kts | 96° |
| 2026-04-30 18:36 | 55.72353 | 12.06615 | 9530 ft | 280 kts | 96° |
| 2026-04-30 18:37 | 55.72066 | 12.10015 | 9135 ft | 278 kts | 96° |
| 2026-04-30 18:37 | 55.71781 | 12.13390 | 8745 ft | 276 kts | 96° |
| 2026-04-30 18:37 | 55.71500 | 12.16739 | 8456 ft | 273 kts | 96° |
| 2026-04-30 18:37 | 55.71203 | 12.20074 | 8431 ft | 275 kts | 100° |
| 2026-04-30 18:38 | 55.70546 | 12.23275 | 8300 ft | 277 kts | 115° |
| 2026-04-30 18:38 | 55.69412 | 12.26029 | 7882 ft | 279 kts | 132° |
| 2026-04-30 18:38 | 55.67928 | 12.28208 | 7649 ft | 274 kts | 144° |
| 2026-04-30 18:38 | 55.66172 | 12.29322 | 7515 ft | 267 kts | 173° |
| 2026-04-30 18:39 | 55.64338 | 12.29385 | 7312 ft | 260 kts | 179° |
| 2026-04-30 18:39 | 55.62552 | 12.29278 | 6942 ft | 254 kts | 180° |
| 2026-04-30 18:39 | 55.60782 | 12.29147 | 6509 ft | 254 kts | 180° |
| 2026-04-30 18:39 | 55.59022 | 12.29023 | 6171 ft | 252 kts | 180° |
| 2026-04-30 18:40 | 55.57280 | 12.28905 | 5846 ft | 250 kts | 180° |
| 2026-04-30 18:40 | 55.55549 | 12.28797 | 5494 ft | 248 kts | 180° |
| 2026-04-30 18:40 | 55.53833 | 12.28702 | 5171 ft | 246 kts | 180° |
| 2026-04-30 18:40 | 55.52128 | 12.28624 | 4816 ft | 243 kts | 180° |
| 2026-04-30 18:41 | 55.50452 | 12.28558 | 4360 ft | 237 kts | 180° |
| 2026-04-30 18:41 | 55.48826 | 12.28509 | 4007 ft | 230 kts | 180° |
| 2026-04-30 18:41 | 55.47250 | 12.28474 | 3804 ft | 224 kts | 180° |
| 2026-04-30 18:41 | 55.45703 | 12.28446 | 3516 ft | 222 kts | 180° |
| 2026-04-30 18:42 | 55.44160 | 12.28428 | 3206 ft | 221 kts | 180° |
| 2026-04-30 18:42 | 55.41640 | 12.30814 | 3010 ft | 216 kts | 112° |
| 2026-04-30 18:42 | 55.41406 | 12.33337 | 3015 ft | 209 kts | 75° |
| 2026-04-30 18:45 | 55.51618 | 12.48655 | 2063 ft | 178 kts | 37° |
| 2026-04-30 18:45 | 55.52517 | 12.50038 | 1801 ft | 165 kts | 36° |
| 2026-04-30 18:45 | 55.53343 | 12.51307 | 1596 ft | 151 kts | 36° |
| 2026-04-30 18:46 | 55.54107 | 12.52481 | 1394 ft | 143 kts | 36° |
| 2026-04-30 18:46 | 55.54851 | 12.53614 | 1178 ft | 140 kts | 36° |
| 2026-04-30 18:46 | 55.55578 | 12.54739 | 996 ft | 138 kts | 36° |
| 2026-04-30 18:46 | 55.56305 | 12.55836 | 837 ft | 138 kts | 37° |
| 2026-04-30 18:47 | 55.57025 | 12.56950 | 654 ft | 138 kts | 39° |
| 2026-04-30 18:47 | 55.57744 | 12.58058 | 442 ft | 137 kts | 38° |
| 2026-04-30 18:47 | 55.58458 | 12.59161 | 272 ft | 136 kts | 38° |
| 2026-04-30 18:47 | 55.59166 | 12.60256 | 97 ft | 135 kts | 38° |
| 2026-04-30 18:48 | 55.59837 | 12.61294 | 23 ft | 112 kts | 41° |
| 2026-04-30 18:48 | 55.60291 | 12.62005 | 25 ft | 63 kts | 41° |
| 2026-04-30 18:48 | 55.60529 | 12.62297 | 26 ft | 33 kts | 21° |
| 2026-04-30 18:48 | 55.60700 | 12.62374 | 25 ft | 21 kts | 12° |
| 2026-04-30 18:49 | 55.60837 | 12.62469 | 26 ft | 22 kts | 40° |
| 2026-04-30 18:49 | 55.60958 | 12.62656 | 24 ft | 24 kts | 40° |
| 2026-04-30 18:49 | 55.61089 | 12.62858 | 24 ft | 26 kts | 42° |
| 2026-04-30 18:49 | 55.61229 | 12.63074 | 24 ft | 27 kts | 40° |
| 2026-04-30 18:50 | 55.61375 | 12.63300 | 24 ft | 27 kts | 41° |
| 2026-04-30 18:50 | 55.61501 | 12.63494 | 24 ft | 25 kts | 41° |
| 2026-04-30 18:50 | 55.61635 | 12.63703 | 24 ft | 26 kts | 41° |
| 2026-04-30 18:50 | 55.61768 | 12.63909 | 24 ft | 24 kts | 41° |
| 2026-04-30 18:51 | 55.61905 | 12.64100 | 24 ft | 26 kts | 27° |
| 2026-04-30 18:51 | 55.62051 | 12.64221 | 24 ft | 20 kts | 25° |
| 2026-04-30 18:51 | 55.62145 | 12.64299 | 23 ft | 10 kts | 25° |
| 2026-04-30 18:51 | 55.62225 | 12.64365 | 23 ft | 15 kts | 25° |
| 2026-04-30 18:52 | 55.62282 | 12.64508 | 23 ft | 15 kts | 74° |
| 2026-04-30 18:52 | 55.62322 | 12.64689 | 24 ft | 16 kts | 66° |
| 2026-04-30 18:52 | 55.62353 | 12.64870 | 24 ft | 13 kts | 103° |
| 2026-04-30 18:52 | 55.62297 | 12.65018 | 24 ft | 16 kts | 122° |
| 2026-04-30 18:53 | 55.62281 | 12.65161 | 24 ft | 13 kts | 61° |
| 2026-04-30 18:53 | 55.62368 | 12.65203 | 24 ft | 15 kts | 359° |
| 2026-04-30 18:53 | 55.62441 | 12.65261 | 24 ft | 13 kts | 75° |
| 2026-04-30 18:53 | 55.62445 | 12.65411 | 26 ft | 11 kts | 69° |
| 2026-04-30 18:54 | 55.62510 | 12.65467 | 24 ft | 8 kts | 23° |
| 2026-04-30 18:54 | 55.62514 | 12.65470 | 24 ft | 0 kts | 23° |